Time;durP1;ratioP1;P1;durP2;ratioP2;P2;SDS_P1;SDS_P2;PMS_P1;PMS_P2;Temp;Humidity;BMP_temperature;BMP_pressure;BME280_temperature;BME280_humidity;BME280_pressure;Samples;Min_cycle;Max_cycle;Signal;HPM_P1;HPM_P2
2021/12/11 00:00:44;;;;;;;120.18;46.67;;;;;;;0.13;100.00;96631.19;5033917;28;20037;-75
2021/12/11 00:03:13;;;;;;;121.85;47.15;;;;;;;-0.02;100.00;96631.91;5032396;28;20029;-75
2021/12/11 00:05:43;;;;;;;121.70;46.53;;;;;;;-0.09;100.00;96628.66;5032383;28;20088;-74
2021/12/11 00:08:10;;;;;;;121.82;49.47;;;;;;;-0.18;100.00;96622.16;5032450;28;20052;-75
2021/12/11 00:10:50;;;;;;;140.90;47.85;;;;;;;-0.13;100.00;96624.06;5033330;28;20052;-74
2021/12/11 00:13:22;;;;;;;133.77;50.83;;;;;;;-0.15;100.00;96626.19;5036939;28;20025;-74
2021/12/11 00:15:48;;;;;;;141.85;52.33;;;;;;;-0.23;100.00;96629.38;5033518;28;20092;-75
2021/12/11 00:18:21;;;;;;;135.55;47.20;;;;;;;-0.25;100.00;96631.53;5033466;28;20040;-75
2021/12/11 00:20:56;;;;;;;135.02;49.90;;;;;;;-0.26;100.00;96648.72;5033320;28;20437;-75
2021/12/11 00:23:27;;;;;;;125.57;48.47;;;;;;;-0.15;100.00;96653.06;5031921;28;20029;-75
2021/12/11 00:25:53;;;;;;;129.55;46.33;;;;;;;-0.15;100.00;96653.88;5031745;28;20084;-75
2021/12/11 00:28:18;;;;;;;134.02;49.25;;;;;;;-0.17;100.00;96656.03;5034113;28;20026;-75
2021/12/11 00:30:45;;;;;;;136.10;50.97;;;;;;;-0.20;100.00;96656.53;5033462;28;20048;-75
2021/12/11 00:33:22;;;;;;;129.32;50.42;;;;;;;-0.17;100.00;96666.78;5033262;28;20562;-75
2021/12/11 00:35:49;;;;;;;125.45;50.22;;;;;;;-0.04;100.00;96670.88;5032923;28;20398;-75
2021/12/11 00:38:19;;;;;;;135.65;48.42;;;;;;;-0.09;100.00;96666.28;5033184;28;20021;-75
2021/12/11 00:40:47;;;;;;;130.57;48.45;;;;;;;0.09;100.00;96672.28;5031680;28;20030;-75
2021/12/11 00:43:18;;;;;;;128.43;48.47;;;;;;;0.03;100.00;96662.59;5031717;28;20021;-75
2021/12/11 00:45:45;;;;;;;132.52;48.72;;;;;;;0.15;100.00;96671.25;5033006;28;20021;-75
2021/12/11 00:48:14;;;;;;;126.93;46.67;;;;;;;0.08;100.00;96665.28;5031507;28;20030;-76
2021/12/11 00:50:48;;;;;;;133.50;50.78;;;;;;;0.12;100.00;96669.09;5032736;28;20026;-76
2021/12/11 00:53:36;;;;;;;136.43;49.13;;;;;;;0.07;100.00;96677.09;5031241;28;20034;-76
2021/12/11 00:56:29;;;;;;;135.20;53.08;;;;;;;0.05;100.00;96679.25;5032922;28;20628;-75
2021/12/11 00:58:59;;;;;;;128.95;48.22;;;;;;;-0.04;100.00;96679.75;5021998;28;20079;-75
2021/12/11 01:01:32;;;;;;;133.90;52.22;;;;;;;0.02;100.00;96687.84;5037187;28;20025;-76
2021/12/11 01:04:05;;;;;;;134.10;49.22;;;;;;;0.05;100.00;96693.50;5033214;28;20024;-75
2021/12/11 01:06:38;;;;;;;131.50;48.50;;;;;;;0.08;100.00;96690.28;5032494;28;20458;-75
2021/12/11 01:09:11;;;;;;;136.38;48.53;;;;;;;0.04;100.00;96693.75;5034617;28;20033;-75
2021/12/11 01:11:48;;;;;;;126.10;47.03;;;;;;;0.10;100.00;96711.53;5032268;28;20041;-76
2021/12/11 01:14:26;;;;;;;142.10;51.80;;;;;;;0.16;100.00;96716.66;5032305;28;20069;-77
2021/12/11 01:17:09;;;;;;;129.52;49.80;;;;;;;0.16;100.00;96719.34;5032313;28;20025;-76
2021/12/11 01:19:38;;;;;;;122.80;48.47;;;;;;;0.12;100.00;96720.97;5030988;28;20026;-76
2021/12/11 01:22:21;;;;;;;137.85;49.33;;;;;;;0.08;100.00;96722.53;5030729;28;20028;-76
2021/12/11 01:24:51;;;;;;;119.70;46.03;;;;;;;0.20;100.00;96722.34;5030857;28;20021;-77
2021/12/11 01:27:23;;;;;;;127.75;46.58;;;;;;;0.13;100.00;96708.31;5030625;28;20055;-75
2021/12/11 01:29:50;;;;;;;126.65;46.92;;;;;;;0.07;100.00;96722.78;5030466;28;20030;-76
2021/12/11 01:32:17;;;;;;;116.63;46.25;;;;;;;0.09;100.00;96708.06;5032380;28;20080;-76
2021/12/11 01:34:44;;;;;;;119.65;47.72;;;;;;;0.15;100.00;96696.25;5031954;28;20483;-78
2021/12/11 01:37:09;;;;;;;120.18;46.15;;;;;;;0.23;100.00;96697.63;5030183;28;20021;-77
2021/12/11 01:39:38;;;;;;;118.82;46.15;;;;;;;0.04;100.00;96688.38;5032618;28;20443;-76
2021/12/11 01:42:11;;;;;;;116.47;44.67;;;;;;;0.08;100.00;96689.47;5031880;28;20132;-75
2021/12/11 01:44:40;;;;;;;115.55;45.85;;;;;;;0.10;100.00;96714.22;5032044;28;20029;-75
2021/12/11 01:47:09;;;;;;;115.30;43.38;;;;;;;0.00;100.00;96721.16;5031581;28;20525;-76
2021/12/11 01:49:36;;;;;;;124.72;44.08;;;;;;;0.05;100.00;96728.44;5031507;28;20036;-76
2021/12/11 01:52:14;;;;;;;134.30;51.60;;;;;;;0.11;100.00;96721.22;5030330;28;20029;-77
2021/12/11 01:54:44;;;;;;;127.50;48.53;;;;;;;0.17;100.00;96720.19;5031541;28;20138;-76
2021/12/11 01:57:24;;;;;;;149.82;50.53;;;;;;;0.09;100.00;96716.13;5031715;28;20032;-74
2021/12/11 01:59:56;;;;;;;140.65;48.40;;;;;;;0.11;100.00;96710.47;5030173;28;20105;-76
2021/12/11 02:02:37;;;;;;;128.68;49.33;;;;;;;0.18;100.00;96711.06;5031518;28;20056;-79
2021/12/11 02:05:04;;;;;;;122.82;45.70;;;;;;;0.15;100.00;96712.38;5028093;28;20029;-76
2021/12/11 02:07:39;;;;;;;118.45;44.60;;;;;;;0.14;100.00;96715.31;5031947;28;20463;-74
2021/12/11 02:10:12;;;;;;;129.38;48.95;;;;;;;0.03;100.00;96703.72;5030569;28;20026;-77
2021/12/11 02:12:42;;;;;;;122.82;48.05;;;;;;;0.15;100.00;96701.63;5031536;28;20996;-75
2021/12/11 02:15:14;;;;;;;129.98;49.25;;;;;;;0.18;100.00;96697.59;5031462;28;20056;-76
2021/12/11 02:18:12;;;;;;;114.68;44.30;;;;;;;0.14;100.00;96683.06;5032504;28;20120;-76
2021/12/11 02:20:51;;;;;;;107.82;44.92;;;;;;;0.23;100.00;96686.88;5033496;28;20116;-75
2021/12/11 02:23:17;;;;;;;105.68;41.90;;;;;;;0.23;100.00;96673.44;5035587;28;20113;-76
2021/12/11 02:25:47;;;;;;;114.85;43.97;;;;;;;0.20;100.00;96680.16;5032620;28;20048;-76
2021/12/11 02:28:30;;;;;;;99.47;41.42;;;;;;;0.19;100.00;96665.06;5030919;28;20475;-75
2021/12/11 02:31:01;;;;;;;99.60;41.22;;;;;;;0.17;100.00;96666.41;5029525;28;20029;-76
2021/12/11 02:33:30;;;;;;;93.30;39.95;;;;;;;0.17;100.00;96663.72;5029822;28;20039;-75
2021/12/11 02:36:11;;;;;;;94.15;38.25;;;;;;;0.22;100.00;96667.25;5029907;28;20031;-80
2021/12/11 02:38:36;;;;;;;86.47;38.35;;;;;;;0.23;100.00;96655.44;5031032;28;20030;-76
2021/12/11 02:41:41;;;;;;;102.72;39.60;;;;;;;0.26;100.00;96654.91;5028643;28;20095;-75
2021/12/11 02:44:15;;;;;;;90.70;38.05;;;;;;;0.13;100.00;96650.00;5020775;28;20490;-76
2021/12/11 02:46:54;;;;;;;86.20;36.13;;;;;;;0.15;100.00;96657.81;5029316;28;20124;-76
2021/12/11 02:49:43;;;;;;;85.90;36.47;;;;;;;0.22;100.00;96677.22;5011252;28;20024;-75
2021/12/11 02:52:31;;;;;;;84.07;35.30;;;;;;;0.21;100.00;96679.09;5009537;28;20042;-77
2021/12/11 02:55:19;;;;;;;82.70;34.17;;;;;;;0.17;100.00;96682.53;5011425;28;20058;-76
2021/12/11 02:58:14;;;;;;;85.47;36.92;;;;;;;0.04;100.00;96677.63;5013744;28;20025;-75
2021/12/11 03:01:04;;;;;;;89.60;39.20;;;;;;;0.07;100.00;96693.22;5025303;28;20084;-75
2021/12/11 03:03:35;;;;;;;91.93;37.75;;;;;;;0.00;100.00;96705.00;5031794;28;20112;-75
2021/12/11 03:06:14;;;;;;;94.15;40.22;;;;;;;-0.07;100.00;96709.84;5030998;28;20041;-76
2021/12/11 03:08:41;;;;;;;97.13;40.85;;;;;;;-0.08;100.00;96713.56;5031367;28;20044;-76
2021/12/11 03:11:10;;;;;;;89.78;36.90;;;;;;;-0.11;100.00;96713.28;5031091;28;20029;-75
2021/12/11 03:13:39;;;;;;;89.55;37.58;;;;;;;-0.08;100.00;96713.56;5033062;28;20030;-77
2021/12/11 03:16:06;;;;;;;82.10;35.95;;;;;;;-0.11;100.00;96718.66;5032064;28;20061;-76
2021/12/11 03:18:32;;;;;;;98.05;38.92;;;;;;;-0.05;100.00;96718.44;5030374;28;20111;-77
2021/12/11 03:20:57;;;;;;;93.13;38.17;;;;;;;-0.07;100.00;96707.16;5028993;28;20475;-76
2021/12/11 03:23:23;;;;;;;85.82;37.05;;;;;;;-0.07;100.00;96717.91;5030316;28;20033;-76
2021/12/11 03:25:49;;;;;;;91.95;39.20;;;;;;;-0.10;100.00;96706.84;5030244;28;20083;-74
2021/12/11 03:28:17;;;;;;;93.85;39.17;;;;;;;-0.11;100.00;96692.59;5030511;28;20483;-75
2021/12/11 03:30:51;;;;;;;84.40;37.22;;;;;;;-0.03;100.00;96700.16;5031513;28;20029;-76
2021/12/11 03:33:18;;;;;;;85.30;36.25;;;;;;;-0.05;100.00;96702.31;5036005;28;20470;-76
2021/12/11 03:35:46;;;;;;;92.10;36.05;;;;;;;-0.08;100.00;96707.38;5036152;28;20036;-77
2021/12/11 03:38:13;;;;;;;88.57;38.78;;;;;;;-0.06;100.00;96714.13;5016403;28;20026;-80
2021/12/11 03:40:40;;;;;;;82.03;34.42;;;;;;;-0.01;100.00;96697.22;5013803;28;20121;-75
2021/12/11 03:43:08;;;;;;;78.05;33.97;;;;;;;0.03;100.00;96719.03;5012677;28;20088;-75
2021/12/11 03:45:36;;;;;;;80.28;35.60;;;;;;;0.05;100.00;96716.88;5013813;28;20553;-76
2021/12/11 03:48:10;;;;;;;82.03;35.58;;;;;;;-0.04;100.00;96717.38;5014128;28;20018;-74
2021/12/11 03:50:36;;;;;;;79.18;34.72;;;;;;;-0.05;100.00;96709.56;5013564;28;20018;-75
2021/12/11 03:53:02;;;;;;;85.30;38.67;;;;;;;-0.25;100.00;96696.00;5014098;28;20026;-76
2021/12/11 03:55:32;;;;;;;75.10;34.47;;;;;;;-0.27;100.00;96698.94;5014475;28;20048;-76
2021/12/11 03:58:00;;;;;;;81.38;35.90;;;;;;;-0.24;100.00;96706.47;5013886;28;20034;-75
2021/12/11 04:00:40;;;;;;;72.80;34.30;;;;;;;-0.32;100.00;96706.16;5013607;28;20100;-76
2021/12/11 04:03:08;;;;;;;75.78;34.47;;;;;;;-0.33;100.00;96710.72;5010147;28;20553;-76
2021/12/11 04:05:36;;;;;;;75.10;33.88;;;;;;;-0.35;100.00;96728.16;5013615;28;20045;-76
2021/12/11 04:08:03;;;;;;;77.43;34.95;;;;;;;-0.56;100.00;96724.47;5013323;28;20034;-77
2021/12/11 04:10:29;;;;;;;82.45;35.67;;;;;;;-0.49;100.00;96743.88;5013854;28;20006;-75
2021/12/11 04:12:58;;;;;;;85.35;35.00;;;;;;;-0.46;100.00;96737.97;5013034;28;20057;-74
2021/12/11 04:15:24;;;;;;;79.35;32.97;;;;;;;-0.43;100.00;96742.84;5013517;28;20029;-74
2021/12/11 04:17:49;;;;;;;80.70;35.97;;;;;;;-0.46;100.00;96737.97;5012339;28;20033;-76
2021/12/11 04:20:19;;;;;;;83.10;33.60;;;;;;;-0.31;100.00;96734.59;5013010;28;20049;-75
2021/12/11 04:22:46;;;;;;;79.85;33.20;;;;;;;-0.35;100.00;96739.69;5013180;28;20034;-76
2021/12/11 04:25:13;;;;;;;76.80;32.72;;;;;;;-0.31;100.00;96743.47;5012977;28;20072;-75
2021/12/11 04:27:39;;;;;;;75.72;33.80;;;;;;;-0.27;100.00;96744.59;5011573;28;20032;-76
2021/12/11 04:30:10;;;;;;;84.90;34.63;;;;;;;-0.21;100.00;96753.50;5013256;28;20026;-77
2021/12/11 04:32:37;;;;;;;75.47;33.83;;;;;;;-0.23;100.00;96751.09;5013411;28;20030;-74
2021/12/11 04:35:06;;;;;;;75.05;32.08;;;;;;;-0.15;100.00;96741.72;5012209;28;20021;-74
2021/12/11 04:37:34;;;;;;;81.32;32.40;;;;;;;-0.12;100.00;96744.72;5028238;28;20021;-76
2021/12/11 04:40:07;;;;;;;70.47;34.50;;;;;;;-0.19;100.00;96733.34;5032108;28;20026;-76
2021/12/11 04:43:21;;;;;;;79.45;34.55;;;;;;;-0.12;100.00;96746.56;5032056;28;20033;-76
2021/12/11 04:45:45;;;;;;;73.45;32.55;;;;;;;-0.20;100.00;96753.25;5029448;28;20045;-75
2021/12/11 04:48:29;;;;;;;74.93;35.88;;;;;;;-0.23;100.00;96748.41;5036276;28;20049;-77
2021/12/11 04:51:45;;;;;;;71.10;33.30;;;;;;;-0.31;100.00;96751.53;5034436;28;20108;-77
2021/12/11 05:09:45;;;;;;;78.72;35.95;;;;;;;-0.72;100.00;96766.47;5032130;28;20037;-75
2021/12/11 05:12:28;;;;;;;75.70;34.67;;;;;;;-0.69;100.00;96755.22;5030693;28;20512;-73
2021/12/11 05:14:54;;;;;;;83.70;36.13;;;;;;;-0.58;100.00;96764.19;5030717;28;20037;-75
2021/12/11 05:17:22;;;;;;;91.53;41.10;;;;;;;-0.73;100.00;96767.53;5031872;28;20056;-76
2021/12/11 05:19:48;;;;;;;86.03;37.47;;;;;;;-0.81;100.00;96761.78;5031551;28;20094;-77
2021/12/11 05:22:15;;;;;;;89.88;37.85;;;;;;;-0.77;100.00;96770.97;5032133;28;20108;-75
2021/12/11 05:24:44;;;;;;;85.95;38.17;;;;;;;-0.85;100.00;96777.63;5032228;28;20494;-75
2021/12/11 05:27:10;;;;;;;95.80;38.72;;;;;;;-0.91;100.00;96793.91;5033960;28;20182;-77
2021/12/11 05:29:37;;;;;;;91.82;38.97;;;;;;;-0.84;100.00;96794.50;5032710;28;20537;-75
2021/12/11 05:32:06;;;;;;;86.85;39.00;;;;;;;-0.91;100.00;96793.91;5030592;28;20029;-75
2021/12/11 05:34:32;;;;;;;94.43;40.20;;;;;;;-0.90;100.00;96804.38;5031763;28;20049;-75
2021/12/11 05:36:58;;;;;;;94.43;40.15;;;;;;;-0.95;100.00;96798.16;5030218;28;20013;-76
2021/12/11 05:39:23;;;;;;;88.78;38.83;;;;;;;-0.96;100.00;96805.38;5031742;28;20040;-75
2021/12/11 05:41:50;;;;;;;98.10;41.25;;;;;;;-0.77;100.00;96824.66;5032065;28;20052;-75
2021/12/11 05:44:17;;;;;;;90.72;39.95;;;;;;;-0.77;100.00;96819.28;5033217;28;20017;-75
2021/12/11 05:46:43;;;;;;;93.20;41.20;;;;;;;-0.73;100.00;96820.41;5031507;28;20025;-75
2021/12/11 05:49:10;;;;;;;88.18;39.22;;;;;;;-0.66;100.00;96837.13;5031805;28;20429;-75
2021/12/11 05:51:39;;;;;;;86.57;39.28;;;;;;;-0.64;100.00;96837.69;5031612;28;20147;-76
2021/12/11 05:54:12;;;;;;;90.13;38.17;;;;;;;-0.52;100.00;96845.59;5029901;28;20053;-75
2021/12/11 05:56:39;;;;;;;85.80;39.10;;;;;;;-0.58;100.00;96839.38;5030025;28;20048;-75
2021/12/11 05:59:07;;;;;;;80.07;38.03;;;;;;;-0.62;100.00;96848.97;5030313;28;20021;-76
2021/12/11 06:01:47;;;;;;;85.00;37.50;;;;;;;-0.66;100.00;96853.25;5029745;28;20061;-75
2021/12/11 06:04:21;;;;;;;88.88;39.67;;;;;;;-0.56;100.00;96861.38;5031037;28;20406;-75
2021/12/11 06:06:47;;;;;;;88.40;38.67;;;;;;;-0.62;100.00;96871.28;5030814;28;20041;-75
2021/12/11 06:09:15;;;;;;;87.30;39.35;;;;;;;-0.62;100.00;96865.91;5030611;28;20078;-77
2021/12/11 06:11:44;;;;;;;88.93;39.08;;;;;;;-0.64;100.00;96869.91;5031934;28;20646;-75
2021/12/11 06:14:10;;;;;;;92.78;39.80;;;;;;;-0.80;100.00;96865.41;5029800;28;20036;-75
2021/12/11 06:16:35;;;;;;;114.35;49.17;;;;;;;-0.71;100.00;96886.19;5031160;28;20021;-74
2021/12/11 06:19:04;;;;;;;88.32;39.83;;;;;;;-0.70;100.00;96897.75;5031202;28;20493;-76
2021/12/11 06:21:32;;;;;;;90.78;38.33;;;;;;;-0.69;100.00;96878.69;5029734;28;20392;-76
2021/12/11 06:23:57;;;;;;;97.60;42.28;;;;;;;-0.73;100.00;96903.63;5029605;28;20490;-77
2021/12/11 06:26:23;;;;;;;99.00;40.05;;;;;;;-0.74;100.00;96907.34;5029620;28;20034;-74
2021/12/11 06:28:49;;;;;;;91.35;39.55;;;;;;;-0.82;100.00;96908.63;5030846;28;20017;-75
2021/12/11 06:31:18;;;;;;;86.60;38.05;;;;;;;-0.72;100.00;96924.03;5030793;28;20026;-75
2021/12/11 06:33:47;;;;;;;99.07;44.13;;;;;;;-0.78;100.00;96927.69;5030996;28;20049;-74
2021/12/11 06:36:14;;;;;;;100.38;45.15;;;;;;;-0.78;100.00;96933.06;5030964;28;20041;-76
2021/12/11 06:38:41;;;;;;;92.18;39.42;;;;;;;-0.73;100.00;96958.13;5032293;28;20021;-77
2021/12/11 06:41:11;;;;;;;77.65;35.72;;;;;;;-0.68;100.00;96960.03;5030143;28;20026;-76
2021/12/11 06:43:37;;;;;;;77.18;36.45;;;;;;;-0.55;100.00;96971.25;5029504;28;20038;-74
2021/12/11 06:46:04;;;;;;;82.25;35.38;;;;;;;-0.54;100.00;96972.06;5030467;28;20033;-80
2021/12/11 06:48:29;;;;;;;85.63;38.33;;;;;;;-0.52;100.00;96985.22;5029502;28;20029;-77
2021/12/11 06:50:57;;;;;;;75.13;36.00;;;;;;;-0.53;100.00;96983.63;5029480;28;20029;-76
2021/12/11 06:53:31;;;;;;;65.13;33.13;;;;;;;-0.47;100.00;96991.47;5029345;28;20022;-75
2021/12/11 06:55:57;;;;;;;73.47;36.17;;;;;;;-0.62;100.00;97000.13;5030899;28;20021;-77
2021/12/11 06:58:25;;;;;;;69.32;32.88;;;;;;;-0.71;100.00;97008.84;5030689;28;20525;-76
2021/12/11 07:00:51;;;;;;;72.68;33.45;;;;;;;-0.67;100.00;97008.13;5029542;28;20029;-75
2021/12/11 07:03:17;;;;;;;62.50;30.85;;;;;;;-0.61;100.00;97027.81;5029509;28;20032;-76
2021/12/11 07:05:42;;;;;;;66.10;31.77;;;;;;;-0.48;100.00;97035.50;5029329;28;20115;-76
2021/12/11 07:08:11;;;;;;;67.25;31.30;;;;;;;-0.41;100.00;97029.97;5034297;28;20451;-76
2021/12/11 07:10:38;;;;;;;55.25;27.55;;;;;;;-0.39;100.00;97055.50;5033827;28;20026;-80
2021/12/11 07:13:03;;;;;;;56.65;28.08;;;;;;;-0.33;100.00;97059.06;5033694;28;20071;-76
2021/12/11 07:15:29;;;;;;;51.50;25.23;;;;;;;-0.20;100.00;97059.53;5032284;28;20085;-84
2021/12/11 07:17:55;;;;;;;59.45;28.30;;;;;;;-0.18;100.00;97061.94;5023197;28;20103;-89
2021/12/11 07:20:20;;;;;;;57.83;28.20;;;;;;;-0.17;100.00;97079.69;5026632;28;20034;-86
2021/12/11 07:22:46;;;;;;;48.88;25.30;;;;;;;-0.22;100.00;97077.75;5036247;28;20078;-85
2021/12/11 07:25:22;;;;;;;51.53;25.13;;;;;;;-0.17;100.00;97093.13;5032770;28;20018;-84
2021/12/11 07:27:49;;;;;;;50.65;25.48;;;;;;;-0.21;100.00;97084.75;5029922;28;20030;-84
2021/12/11 07:30:15;;;;;;;49.85;25.33;;;;;;;-0.08;100.00;97105.06;5039244;28;20034;-84
2021/12/11 07:32:41;;;;;;;59.20;29.77;;;;;;;-0.10;100.00;97113.41;5035889;28;20030;-89
2021/12/11 07:35:09;;;;;;;68.07;31.05;;;;;;;-0.35;100.00;97118.41;5032649;28;20072;-87
2021/12/11 07:37:35;;;;;;;65.85;32.38;;;;;;;-0.36;100.00;97129.38;5032530;28;20102;-85
2021/12/11 07:40:05;;;;;;;74.07;34.00;;;;;;;-0.56;100.00;97124.53;5033011;28;20029;-83
2021/12/11 07:42:31;;;;;;;80.13;35.67;;;;;;;-0.52;100.00;97147.16;5025437;28;20044;-84
2021/12/11 07:44:56;;;;;;;73.45;34.30;;;;;;;-0.55;100.00;97156.50;5014032;28;20479;-81
2021/12/11 07:47:22;;;;;;;64.28;31.30;;;;;;;-0.43;100.00;97143.00;5013899;28;20022;-84
2021/12/11 07:49:47;;;;;;;65.68;30.70;;;;;;;-0.18;100.00;97164.84;5015346;28;20053;-84
2021/12/11 07:52:13;;;;;;;76.40;34.85;;;;;;;-0.34;100.00;97178.28;5017387;28;20453;-86
2021/12/11 07:54:38;;;;;;;72.45;34.67;;;;;;;-0.48;100.00;97183.19;5016759;28;20049;-85
2021/12/11 07:57:04;;;;;;;64.80;33.25;;;;;;;-0.58;100.00;97151.63;5021620;28;20120;-87
2021/12/11 07:59:29;;;;;;;70.05;33.83;;;;;;;-0.20;100.00;97188.47;5019664;28;20060;-85
2021/12/11 08:01:55;;;;;;;76.78;35.22;;;;;;;-0.16;100.00;97178.84;5025538;28;20053;-83
2021/12/11 08:04:22;;;;;;;65.90;32.97;;;;;;;-0.03;100.00;97204.56;5034084;28;20030;-85
2021/12/11 08:06:49;;;;;;;70.65;34.13;;;;;;;-0.06;100.00;97202.38;5035970;28;21380;-88
2021/12/11 08:09:18;;;;;;;76.60;37.40;;;;;;;0.13;100.00;97208.28;5034692;28;20026;-84
2021/12/11 08:11:45;;;;;;;70.22;34.00;;;;;;;0.37;100.00;97213.22;5035063;28;20038;-83
2021/12/11 08:14:11;;;;;;;65.80;32.80;;;;;;;0.37;100.00;97223.16;5032263;28;20053;-83
2021/12/11 08:16:46;;;;;;;72.93;35.00;;;;;;;0.32;100.00;97223.88;5036800;28;20013;-89
2021/12/11 08:19:15;;;;;;;65.50;34.40;;;;;;;0.27;100.00;97214.94;5035278;28;20042;-85
2021/12/11 08:21:41;;;;;;;68.05;32.30;;;;;;;0.28;100.00;97230.81;5037657;28;20026;-85
2021/12/11 08:24:07;;;;;;;63.42;30.98;;;;;;;0.31;100.00;97229.53;5035640;28;20044;-86
2021/12/11 08:26:37;;;;;;;64.95;31.92;;;;;;;0.49;100.00;97240.81;5035991;28;20022;-86
2021/12/11 08:29:05;;;;;;;65.25;33.45;;;;;;;0.33;100.00;97232.78;5032950;28;20021;-87
2021/12/11 08:31:31;;;;;;;61.55;32.20;;;;;;;0.40;100.00;97247.69;5033136;28;20034;-88
2021/12/11 08:33:57;;;;;;;65.65;31.02;;;;;;;0.60;100.00;97263.25;5032200;28;20022;-86
2021/12/11 08:36:23;;;;;;;61.55;30.08;;;;;;;0.62;100.00;97265.72;5035159;28;20013;-86
2021/12/11 08:38:49;;;;;;;54.38;28.50;;;;;;;0.68;100.00;97280.88;5036698;28;20026;-88
2021/12/11 08:41:19;;;;;;;55.95;27.63;;;;;;;0.79;100.00;97269.16;5036510;28;20030;-87
2021/12/11 08:43:52;;;;;;;60.22;29.80;;;;;;;0.93;100.00;97263.16;5034390;28;20026;-89
2021/12/11 08:46:27;;;;;;;60.72;27.63;;;;;;;0.98;100.00;97283.94;5031307;28;20025;-85
2021/12/11 08:48:54;;;;;;;58.03;27.92;;;;;;;0.95;100.00;97287.94;5031982;28;20020;-84
2021/12/11 08:51:27;;;;;;;56.40;29.73;;;;;;;0.93;100.00;97305.41;5026340;28;20029;-83
2021/12/11 08:53:53;;;;;;;58.45;28.15;;;;;;;0.88;100.00;97286.50;4987032;28;1278876;-86
2021/12/11 08:56:19;;;;;;;57.80;29.25;;;;;;;0.91;100.00;97307.53;5034077;28;20025;-86
2021/12/11 08:58:47;;;;;;;53.53;27.17;;;;;;;0.97;100.00;97318.09;5023271;28;20025;-86
2021/12/11 09:01:15;;;;;;;51.45;25.92;;;;;;;0.97;100.00;97301.94;5025799;28;20033;-87
2021/12/11 09:04:03;;;;;;;45.35;25.73;;;;;;;1.07;100.00;97312.03;5025611;28;20034;-89
2021/12/11 09:06:37;;;;;;;46.30;23.50;;;;;;;1.01;100.00;97313.03;5018269;28;20048;-86
2021/12/11 09:09:39;;;;;;;44.88;22.48;;;;;;;1.18;100.00;97329.16;5040018;28;20057;-87
2021/12/11 09:12:32;;;;;;;44.95;23.50;;;;;;;1.27;100.00;97339.22;5032362;28;20049;-83
2021/12/11 09:15:12;;;;;;;43.10;21.92;;;;;;;1.32;100.00;97341.97;5041995;28;20029;-84
2021/12/11 09:17:42;;;;;;;44.25;22.20;;;;;;;1.37;100.00;97347.44;5046425;28;20033;-85
2021/12/11 09:20:20;;;;;;;40.33;21.30;;;;;;;1.37;100.00;97341.22;5030311;28;20429;-75
2021/12/11 09:23:16;;;;;;;41.75;21.70;;;;;;;1.57;100.00;97350.34;5030285;28;20160;-75
2021/12/11 09:26:03;;;;;;;40.38;19.48;;;;;;;1.52;100.00;97349.47;5032931;28;20497;-78
2021/12/11 09:28:38;;;;;;;37.40;19.25;;;;;;;1.77;100.00;97360.53;5026076;28;20021;-79
2021/12/11 09:31:14;;;;;;;39.47;19.13;;;;;;;1.70;100.00;97340.22;5027532;28;20025;-80
2021/12/11 09:33:49;;;;;;;37.38;19.08;;;;;;;2.11;100.00;97359.25;5032364;28;20036;-81
2021/12/11 09:36:19;;;;;;;32.13;16.77;;;;;;;2.22;100.00;97352.06;5039228;28;20479;-87
2021/12/11 09:38:50;;;;;;;36.88;19.25;;;;;;;2.14;100.00;97360.59;5044079;28;20041;-83
2021/12/11 09:41:21;;;;;;;36.47;19.73;;;;;;;2.21;100.00;97361.22;5055463;28;20039;-88
2021/12/11 09:43:57;;;;;;;28.60;16.00;;;;;;;1.98;100.00;97359.66;5050374;28;20045;-82
2021/12/11 09:46:27;;;;;;;27.13;15.57;;;;;;;1.98;100.00;97358.84;5043729;28;20022;-84
2021/12/11 09:48:55;;;;;;;29.80;14.98;;;;;;;1.96;100.00;97364.50;5041991;28;20079;-84
2021/12/11 09:51:26;;;;;;;28.35;15.50;;;;;;;1.89;100.00;97354.97;5042458;28;20060;-76
2021/12/11 09:53:56;;;;;;;30.10;14.73;;;;;;;1.96;100.00;97359.09;5043149;28;20055;-77
2021/12/11 09:56:49;;;;;;;31.27;14.77;;;;;;;1.78;100.00;97354.06;5039549;28;20033;-77
2021/12/11 09:59:18;;;;;;;33.63;14.45;;;;;;;1.63;100.00;97353.91;5037605;28;20503;-79
2021/12/11 10:01:49;;;;;;;32.53;15.70;;;;;;;1.72;100.00;97363.19;5037973;28;20512;-78
2021/12/11 10:04:37;;;;;;;33.50;15.77;;;;;;;1.75;100.00;97343.00;5036168;28;20036;-78
2021/12/11 10:07:24;;;;;;;34.42;17.65;;;;;;;1.96;100.00;97359.09;5036094;28;20094;-79
2021/12/11 10:09:52;;;;;;;36.70;19.75;;;;;;;2.15;100.00;97346.06;5033557;28;20030;-77
2021/12/11 10:12:23;;;;;;;39.45;20.60;;;;;;;2.12;100.00;97347.41;5035946;28;20087;-81
2021/12/11 10:14:53;;;;;;;44.55;21.23;;;;;;;2.03;100.00;97335.44;5036042;28;20028;-75
2021/12/11 10:17:36;;;;;;;39.70;20.70;;;;;;;2.08;100.00;97348.97;5035981;28;20074;-77
2021/12/11 10:20:07;;;;;;;40.80;20.92;;;;;;;1.94;100.00;97361.22;5037325;28;20057;-74
2021/12/11 10:22:35;;;;;;;43.85;20.65;;;;;;;2.01;100.00;97361.03;5035732;28;20040;-75
2021/12/11 10:25:04;;;;;;;43.05;21.27;;;;;;;2.07;100.00;97350.03;5034847;28;20515;-75
2021/12/11 10:27:31;;;;;;;39.22;20.42;;;;;;;2.16;100.00;97351.19;5036439;28;20100;-78
2021/12/11 10:29:59;;;;;;;42.95;21.65;;;;;;;2.40;100.00;97365.16;5034531;28;20057;-75
2021/12/11 10:32:30;;;;;;;37.60;22.25;;;;;;;2.39;100.00;97347.34;5033684;28;20037;-75
2021/12/11 10:34:59;;;;;;;39.65;20.25;;;;;;;2.43;100.00;97342.25;5034715;28;20064;-74
2021/12/11 10:37:43;;;;;;;38.25;19.88;;;;;;;2.64;100.00;97352.09;5033433;28;20040;-75
2021/12/11 10:40:22;;;;;;;39.10;20.90;;;;;;;2.62;100.00;97346.16;5034602;28;20037;-75
2021/12/11 10:43:00;;;;;;;47.47;22.58;;;;;;;2.72;100.00;97343.53;5032816;28;20052;-78
2021/12/11 10:45:28;;;;;;;38.45;21.50;;;;;;;2.76;100.00;97336.53;5034810;28;20044;-75
2021/12/11 10:47:58;;;;;;;41.13;21.60;;;;;;;2.92;99.86;97343.63;5034334;28;20064;-76
2021/12/11 10:50:52;;;;;;;39.55;20.17;;;;;;;2.92;98.63;97340.94;5034150;28;20025;-76
2021/12/11 10:53:21;;;;;;;37.08;19.58;;;;;;;3.01;99.21;97344.75;5026071;28;20091;-75
2021/12/11 10:55:48;;;;;;;38.50;18.77;;;;;;;3.13;98.14;97342.66;5037933;28;20498;-74
2021/12/11 10:58:22;;;;;;;33.10;17.55;;;;;;;3.29;96.74;97337.34;5036900;28;20495;-75
2021/12/11 11:00:55;;;;;;;37.47;18.85;;;;;;;3.13;96.56;97348.06;5037301;28;20179;-74
2021/12/11 11:03:22;;;;;;;33.55;18.27;;;;;;;3.20;96.73;97347.84;5036828;28;20044;-76
2021/12/11 11:05:48;;;;;;;33.42;17.92;;;;;;;3.09;97.14;97357.78;5036402;28;20025;-74
2021/12/11 11:08:15;;;;;;;34.33;17.92;;;;;;;3.07;97.90;97343.72;5036514;28;20043;-76
2021/12/11 11:10:47;;;;;;;38.38;19.27;;;;;;;2.85;99.80;97345.75;5031311;28;20036;-77
2021/12/11 11:13:15;;;;;;;31.88;17.85;;;;;;;3.06;98.40;97338.59;5035750;28;20041;-74
2021/12/11 11:15:42;;;;;;;37.35;18.58;;;;;;;3.13;98.19;97347.28;5034818;28;20735;-74
2021/12/11 11:18:11;;;;;;;34.75;19.50;;;;;;;3.32;97.03;97356.53;5031904;28;20033;-76
2021/12/11 11:20:42;;;;;;;35.67;18.70;;;;;;;3.62;95.45;97353.16;5032452;28;20478;-76
2021/12/11 11:23:08;;;;;;;39.15;20.50;;;;;;;3.88;93.16;97348.63;5032733;28;20167;-75
2021/12/11 11:25:45;;;;;;;39.38;20.30;;;;;;;3.94;92.29;97347.53;5034383;28;20040;-76
2021/12/11 11:28:15;;;;;;;34.83;19.13;;;;;;;3.97;92.35;97342.41;5030529;28;20022;-75
2021/12/11 11:30:51;;;;;;;37.40;19.50;;;;;;;3.97;91.65;97331.59;5014384;28;20113;-79
2021/12/11 11:33:18;;;;;;;41.85;19.27;;;;;;;4.14;90.23;97342.97;5009028;28;20495;-83
2021/12/11 11:35:47;;;;;;;37.90;19.25;;;;;;;4.06;90.59;97340.00;5019334;28;20030;-80
2021/12/11 11:38:16;;;;;;;36.25;19.77;;;;;;;4.04;90.47;97342.94;5022321;28;20022;-75
2021/12/11 11:40:46;;;;;;;39.30;18.70;;;;;;;3.78;91.33;97333.19;5026611;28;20553;-76
2021/12/11 11:43:13;;;;;;;37.05;19.55;;;;;;;3.41;93.60;97332.53;5012410;28;20030;-76
2021/12/11 11:45:40;;;;;;;38.22;20.52;;;;;;;3.23;94.49;97342.72;5037374;28;20092;-77